Terminal Aerodrome Forecast
Issued by NWS

Home | Current Version | Previous Version | Text Only | Print | Product List | Glossary On
Versions: 1 2 3 4 5 6 7 8 9 10 11 12 13 14 15 16
000
FTUS43 KEAX 252335
TAFSTJ
TAF
KSTJ 252335Z 2600/2624 19006KT P6SM OVC045
     FM260500 18008KT P6SM VCTS BKN035CB
     FM261000 18008KT P6SM OVC015
     FM261700 14010KT P6SM SCT020
     FM262000 15013G22KT P6SM VCTS BKN035CB=

USA.gov is the U.S. government's official web portal to all federal, state and local government web resources and services.